Latest Coastal Weather Observations for Merimbula

IDN60701

Issued at 3:55 pm EST Friday 1 August 2014 (issued every 10 minutes, with the page automatically refreshed every 10 minutes)

About coastal observations | Map of coastal stations | Coastal observations for NSW | Marine services | Other Formats
Station Details ID: 069147 Name: MERIMBULA AIRPORT AWS Lat: -36.91 Lon: 149.90 Height: 1.5 m
Data from the previous 72 hours. | See also: Recent months at Merimbula
Date/Time
EST
Temp

°C
Wind Pressure Rain
since 9am
mm
Weather Cloud Vis
km
Sea
Height
m
Swell
Dir
 
Speed
knots
Gust
knots
hPa Trend Height
m
Period
s
Dir
01/03:30pm 15.1 WNW 17 25 1004.1 - 0.0 - - 10 - - - -
01/03:05pm 15.7 W 16 26 1003.6 - 0.0 - - 10 - - - -
01/03:00pm 15.5 WNW 18 26 1003.6 - 0.0 - - 10 - - - -
01/02:30pm 15.8 WNW 16 26 1002.8 - 0.0 - - 10 - - - -
01/02:22pm 15.4 WNW 15 25 1002.9 - 0.0 - - 10 - - - -
01/02:00pm 15.7 WNW 14 22 1002.8 - 0.0 - - 10 - - - -
01/01:30pm 16.3 W 11 20 1002.5 - 0.0 - - 10 - - - -
01/01:04pm 16.0 W 16 26 1002.7 - 0.0 - - 10 - - - -
01/01:00pm 16.1 W 14 24 1002.6 - 0.0 - - 10 - - - -
01/12:30pm 16.4 NW 8 17 1002.5 - 0.0 - - 10 - - - -
01/12:00pm 15.8 N 2 10 1002.8 - 0.0 - - 10 - - - -
01/11:30am 15.6 NNE 4 6 1003.1 - 0.0 - - 10 - - - -
01/11:00am 15.2 SSE 2 4 1003.1 - 0.0 - - 10 - - - -
01/10:30am 14.2 WNW 6 11 1003.1 - 0.0 - - 10 - - - -
01/10:00am 13.7 NW 10 14 1003.2 - 0.0 - - 10 - - - -
01/09:30am 13.0 NW 5 8 1003.6 - 0.0 - - 10 - - - -
01/09:00am 12.0 WSW 1 5 1003.8 - 0.2 - - 10 - - - -
01/08:30am 9.6 CALM 0 0 1003.8 - 0.2 - - 10 - - - -
01/08:00am 5.5 CALM 0 0 1003.5 - 0.2 - - 10 - - - -
01/07:30am 3.8 CALM 0 0 1003.2 - 0.2 - - 10 - - - -
01/07:00am 3.0 CALM 0 0 1002.6 - 0.0 - - 10 - - - -
01/06:30am 4.6 CALM 0 0 1002.6 - 0.0 - - 10 - - - -
01/06:00am 5.1 SSW 1 5 1002.4 - 0.0 - - 10 - - - -
01/05:30am 6.7 NW 5 7 1002.0 - 0.0 - - 10 - - - -
01/05:00am 6.8 NW 5 8 1001.9 - 0.0 - Partly cloudy 10 - - - -
01/04:30am 7.4 N 4 6 1001.8 - 0.0 - Partly cloudy 10 - - - -
01/04:00am 8.1 WSW 3 11 1002.4 - 0.0 - Partly cloudy 10 - - - -
01/03:30am 8.9 SW 10 15 1001.8 - 0.0 - Partly cloudy 10 - - - -
01/03:00am 8.9 SSW 9 14 1001.5 - 0.0 - Cloudy 10 - - - -
01/02:30am 8.9 SSW 8 14 1001.6 - 0.0 - Partly cloudy 10 - - - -
01/02:00am 8.7 S 6 9 1001.2 - 0.0 - - 10 - - - -
01/01:30am 9.5 S 7 12 1000.9 - 0.0 - - 10 - - - -
01/01:00am 9.9 S 6 10 1000.4 - 0.0 - - 10 - - - -
01/12:30am 10.5 SSE 6 12 1000.3 - 0.0 - - 10 - - - -
01/12:00am 11.4 SSW 5 8 999.8 - 0.0 - Mostly clear 10 - - - -
 
Date/Time
EST
Temp

°C
Wind Pressure Rain
since 9am
mm
Weather Cloud Vis
km
Sea
Height
m
Swell
Dir
 
Speed
knots
Gust
knots
hPa Trend Height
m
Period
s
Dir
31/11:30pm 12.6 SSE 10 15 999.3 - 0.0 - Partly cloudy 10 - - - -
31/11:00pm 12.9 CALM 0 0 998.8 - 0.0 - - 10 - - - -
31/10:30pm 15.5 NNW 6 7 998.6 - 0.0 - - 10 - - - -
31/10:00pm 16.3 NNW 7 11 998.5 - 0.0 - - 10 - - - -
31/09:30pm 17.2 NW 9 11 998.6 - 0.0 - - 10 - - - -
31/09:00pm 17.6 NW 9 12 998.8 - 0.0 - - 10 - - - -
31/08:30pm 18.2 NW 10 14 998.8 - 0.0 - - 10 - - - -
31/08:00pm 18.7 WNW 13 21 998.7 - 0.0 - - 10 - - - -
31/07:30pm 18.2 NW 10 16 998.6 - 0.0 - - 10 - - - -
31/07:00pm 18.4 WNW 11 19 998.3 - 0.0 - - 10 - - - -
31/06:30pm 19.2 NW 15 23 997.7 - 0.0 - - 10 - - - -
31/06:00pm 19.6 NW 15 21 997.0 - 0.0 - - 10 - - - -
31/05:30pm 20.1 NW 18 29 996.5 - 0.0 - - 10 - - - -
31/05:05pm 20.9 NW 17 29 996.2 - 0.0 - - 10 - - - -
31/05:00pm 20.9 NW 17 26 996.2 - 0.0 - - 10 - - - -
31/04:33pm 22.0 NW 17 29 996.1 - 0.0 - - 10 - - - -
31/04:30pm 21.8 NW 16 25 996.1 - 0.0 - - 10 - - - -
31/04:28pm 21.8 NW 15 25 996.0 - 0.0 - - 10 - - - -
31/04:00pm 22.6 NW 14 19 996.5 - 0.0 - - 10 - - - -
31/03:46pm 22.9 NW 15 25 996.7 - 0.0 - - 10 - - - -
31/03:30pm 22.9 NW 14 24 996.8 - 0.0 - - 10 - - - -
31/03:03pm 23.2 NW 15 25 996.8 - 0.0 - - 10 - - - -
31/03:00pm 23.1 NW 16 25 996.8 - 0.0 - - 10 - - - -
31/02:30pm 23.0 NW 19 32 997.3 - 0.0 - - 10 - - - -
31/02:00pm 22.6 NW 27 43 997.8 - 0.0 - - 10 - - - -
31/01:30pm 22.7 NW 25 40 998.3 - 0.0 - - 10 - - - -
31/01:00pm 22.9 NW 21 32 999.4 - 0.0 - - 10 - - - -
31/12:32pm 22.9 NW 25 35 1000.0 - 0.0 - - 10 - - - -
31/12:30pm 22.8 NW 27 35 1000.0 - 0.0 - - 10 - - - -
31/12:10pm 23.0 NW 15 31 1000.6 - 0.0 - - 10 - - - -
31/12:00pm 23.2 NNW 11 18 1000.8 - 0.0 - - 10 - - - -
31/11:30am 22.4 NW 17 24 1001.8 - 0.0 - - 10 - - - -
31/11:00am 22.2 N 7 15 1002.9 - 0.0 - - 10 - - - -
31/10:30am 20.7 N 10 18 1003.5 - 0.0 - - 10 - - - -
31/10:00am 18.4 ENE 9 12 1004.0 - 0.0 - - 10 - - - -
31/09:30am 16.2 NNE 6 11 1004.5 - 0.0 - - 10 - - - -
31/09:29am 16.2 NNE 6 11 1004.5 - 0.0 - - 10 - - - -
31/09:00am 11.2 CALM 0 0 1005.1 - 0.0 - - 10 - - - -
31/08:30am 8.1 CALM 0 0 1005.7 - 0.0 - - 10 - - - -
31/08:00am 6.0 CALM 0 0 1006.1 - 0.0 - - 10 - - - -
31/07:30am 4.2 CALM 0 0 1006.4 - 0.0 - - 10 - - - -
31/07:00am 4.6 CALM 0 0 1006.5 - 0.0 - - 10 - - - -
31/06:30am 4.5 CALM 0 0 1006.8 - 0.0 - - 10 - - - -
31/06:00am 4.4 CALM 0 0 1007.0 - 0.0 - - 10 - - - -
31/05:30am 4.7 CALM 0 0 1007.0 - 0.0 - - 10 - - - -
31/05:00am 4.7 CALM 0 0 1007.3 - 0.0 - - 10 - - - -
31/04:30am 5.0 CALM 0 0 1007.6 - 0.0 - - 10 - - - -
31/04:00am 5.0 CALM 0 0 1007.9 - 0.0 - - 10 - - - -
31/03:30am 5.6 SW 4 8 1008.1 - 0.0 - - 10 - - - -
31/03:00am 5.4 CALM 0 0 1008.4 - 0.0 - - 10 - - - -
31/02:30am 5.7 SW 3 5 1008.8 - 0.0 - - 10 - - - -
31/02:00am 5.1 CALM 0 2 1009.0 - 0.0 - - 10 - - - -
31/01:30am 6.0 SW 3 4 1009.3 - 0.0 - - 10 - - - -
31/01:00am 6.8 SSW 1 6 1009.5 - 0.0 - - 10 - - - -
31/12:30am 6.3 CALM 0 0 1009.6 - 0.0 - - 10 - - - -
31/12:00am 7.1 CALM 0 0 1010.0 - 0.0 - - 10 - - - -
 
Date/Time
EST
Temp

°C
Wind Pressure Rain
since 9am
mm
Weather Cloud Vis
km
Sea
Height
m
Swell
Dir
 
Speed
knots
Gust
knots
hPa Trend Height
m
Period
s
Dir
30/11:30pm 8.1 S 4 6 1010.2 - 0.0 - - 10 - - - -
30/11:00pm 8.0 S 5 7 1010.4 - 0.0 - - 10 - - - -
30/10:30pm 7.7 SSW 2 4 1010.5 - 0.0 - - 10 - - - -
30/10:00pm 8.6 NW 3 6 1010.7 - 0.0 - - 10 - - - -
30/09:30pm 8.9 W 2 4 1011.1 - 0.0 - - 10 - - - -
30/09:00pm 9.7 NW 6 8 1011.0 - 0.0 - - 10 - - - -
30/08:30pm 10.3 NW 5 7 1011.1 - 0.0 - - 10 - - - -
30/08:00pm 10.4 NW 4 5 1011.2 - 0.0 - - 10 - - - -
30/07:30pm 11.1 NNW 4 6 1011.2 - 0.0 - - 10 - - - -
30/07:00pm 11.5 NW 4 6 1010.9 - 0.0 - - 10 - - - -
30/06:30pm 11.5 NW 3 5 1010.7 - 0.0 - - 10 - - - -
30/06:00pm 13.1 NNW 4 6 1010.6 - 0.0 - - 10 - - - -
30/05:30pm 14.8 NNW 4 5 1010.3 - 0.0 - - 10 - - - -
30/05:00pm 17.4 NW 6 7 1009.9 - 0.0 - - 10 - - - -
30/04:30pm 19.9 W 7 9 1009.6 - 0.0 - - 10 - - - -
30/04:00pm 22.2 WSW 8 14 1009.4 - 0.0 - - 10 - - - -
30/03:30pm 22.7 W 8 12 1009.5 - 0.0 - - 10 - - - -
30/03:00pm 22.4 W 8 11 1009.3 - 0.0 - - 10 - - - -
30/02:30pm 23.0 W 12 19 1009.4 - 0.0 - Partly cloudy 10 - - - -
30/02:00pm 20.4 SW 3 8 1009.5 - 0.0 - Partly cloudy 10 - - - -
30/01:30pm 20.7 S 6 11 1009.5 - 0.0 - Partly cloudy 10 - - - -
30/01:00pm 23.5 W 10 14 1009.7 - 0.0 - - 10 - - - -
30/12:30pm 22.1 NNW 8 10 1010.2 - 0.0 - - 10 - - - -
30/12:00pm 20.9 NW 8 11 1010.5 - 0.0 - - 10 - - - -
30/11:30am 20.8 NW 7 11 1011.2 - 0.0 - - 10 - - - -
30/11:00am 20.3 CALM 0 0 1011.7 - 0.0 - - 10 - - - -
30/10:30am 19.7 CALM 0 0 1012.0 - 0.0 - - 10 - - - -
30/10:00am 17.9 CALM 0 0 1012.3 - 0.0 - - 10 - - - -
30/09:30am 15.2 W 3 6 1012.5 - 0.0 - - 10 - - - -
30/09:00am 12.0 CALM 0 0 1012.7 - 0.0 - - 10 - - - -
30/08:30am 9.4 SW 1 4 1012.8 - 0.0 - - 10 - - - -
30/08:00am 7.4 CALM 0 0 1012.5 - 0.0 - - 10 - - - -
30/07:30am 6.7 CALM 0 0 1012.3 - 0.0 - - 10 - - - -
30/07:00am 6.2 WNW 1 5 1012.3 - 0.0 - - 10 - - - -
30/06:30am 5.8 CALM 0 3 1011.9 - 0.0 - - 10 - - - -
30/06:00am 6.1 SW 3 5 1011.4 - 0.0 - - 10 - - - -
30/05:30am 5.7 CALM 0 0 1011.1 - 0.0 - - 10 - - - -
30/05:00am 5.8 CALM 0 0 1010.9 - 0.0 - - 10 - - - -
30/04:30am 6.1 CALM 0 0 1010.6 - 0.0 - - 10 - - - -
30/04:00am 6.4 CALM 0 4 1010.2 - 0.0 - - 10 - - - -
30/03:30am 6.6 CALM 0 0 1010.0 - 0.0 - - 10 - - - -
30/03:00am 6.8 CALM 0 0 1009.9 - 0.0 - - 10 - - - -
30/02:30am 7.1 CALM 0 3 1009.8 - 0.0 - - 10 - - - -
30/02:00am 8.4 N 4 7 1010.1 - 0.0 - - 10 - - - -
30/01:30am 8.8 CALM 0 0 1010.0 - 0.0 - - 10 - - - -
30/01:00am 9.7 NW 2 7 1009.8 - 0.0 - - 10 - - - -
30/12:30am 11.7 SW 3 6 1009.4 - 0.0 - - 10 - - - -
30/12:00am 16.4 N 7 10 1009.1 - 0.0 - - 10 - - - -
 
Date/Time
EST
Temp

°C
Wind Pressure Rain
since 9am
mm
Weather Cloud Vis
km
Sea
Height
m
Swell
Dir
 
Speed
knots
Gust
knots
hPa Trend Height
m
Period
s
Dir
29/11:30pm 13.1 N 7 12 1008.8 - 0.0 - - 10 - - - -
29/11:28pm 12.5 N 7 12 1008.8 - 0.0 - - 10 - - - -
29/11:00pm 6.9 CALM 0 0 1009.5 - 0.0 - - 10 - - - -
29/10:30pm 7.2 CALM 0 0 1010.0 - 0.0 - - 10 - - - -
29/10:00pm 7.2 CALM 0 0 1009.4 - 0.0 - - 10 - - - -
29/09:30pm 7.7 NNW 1 5 1009.6 - 0.0 - - 10 - - - -
29/09:00pm 9.1 NNW 4 5 1009.6 - 0.0 - - 10 - - - -
29/08:30pm 9.9 NNW 5 11 1009.3 - 0.0 - - 10 - - - -
29/08:00pm 9.9 SW 4 5 1009.8 - 0.0 - - 10 - - - -
29/07:30pm 10.2 CALM 0 0 1009.3 - 0.0 - - 10 - - - -
29/07:00pm 10.8 CALM 0 0 1008.5 - 0.0 - - 10 - - - -
29/06:30pm 11.9 NW 1 5 1008.4 - 0.0 - - 10 - - - -
29/06:00pm 12.8 CALM 0 0 1008.1 - 0.0 - - 10 - - - -
29/05:30pm 14.1 NNW 2 6 1007.7 - 0.0 - - 10 - - - -
29/05:00pm 16.5 SSW 4 6 1007.7 - 0.0 - - 10 - - - -
29/04:30pm 19.6 CALM 0 0 1007.0 - 0.0 - - 10 - - - -
29/04:00pm 21.7 W 5 8 1007.0 - 0.0 - - 10 - - - -

Other Formats:

Comma delimited format used in spreadsheet applications
http://www.bom.gov.au/fwo/IDN60701/IDN60701.95929.axf

JavaScript Object Notation format (JSON) in row-major order
http://www.bom.gov.au/fwo/IDN60701/IDN60701.95929.json